createdAt,value
2022-10-29T00:00:59.934Z,99157.75
2022-10-29T00:03:27.050Z,99158.03
2022-10-29T00:05:57.753Z,99146.81
2022-10-29T00:08:25.065Z,99154.06
2022-10-29T00:10:52.016Z,99155.56
2022-10-29T00:13:18.992Z,99159.62
2022-10-29T00:15:45.819Z,99154.31
2022-10-29T00:18:12.734Z,99147.50
2022-10-29T00:20:39.603Z,99154.87
2022-10-29T00:23:06.416Z,99146.16
2022-10-29T00:25:33.290Z,99143.84
2022-10-29T00:28:00.255Z,99138.53
2022-10-29T00:30:27.129Z,99138.34
2022-10-29T00:32:54.353Z,99139.75
2022-10-29T00:35:21.417Z,99147.28
2022-10-29T00:37:48.311Z,99153.22
2022-10-29T00:40:15.258Z,99151.12
2022-10-29T00:42:42.126Z,99160.22
2022-10-29T00:45:18.098Z,99158.09
2022-10-29T00:47:45.192Z,99153.78
2022-10-29T00:50:14.112Z,99162.56
2022-10-29T00:52:45.085Z,99160.50
2022-10-29T00:55:15.877Z,99159.72
2022-10-29T00:57:48.839Z,99159.53
2022-10-29T01:00:17.516Z,99156.38
2022-10-29T01:02:45.895Z,99150.50
2022-10-29T01:05:19.422Z,99144.12
2022-10-29T01:07:46.323Z,99146.03
2022-10-29T01:10:13.567Z,99153.16
2022-10-29T01:12:55.877Z,99142.25
2022-10-29T01:15:48.047Z,99146.87
2022-10-29T01:18:18.419Z,99138.91
2022-10-29T01:21:17.689Z,99140.91
2022-10-29T01:24:12.509Z,99139.00
2022-10-29T01:27:07.301Z,99144.66
2022-10-29T01:29:43.267Z,99141.91
2022-10-29T01:32:15.700Z,99139.06
2022-10-29T01:34:48.229Z,99134.69
2022-10-29T01:37:22.695Z,99127.97
2022-10-29T01:39:59.277Z,99122.47
2022-10-29T01:42:40.008Z,99121.59
2022-10-29T01:45:33.314Z,99124.78
2022-10-29T01:48:05.040Z,99118.72
2022-10-29T01:50:32.994Z,99115.75
2022-10-29T01:53:00.895Z,99112.50
2022-10-29T01:55:35.474Z,99113.38
2022-10-29T01:58:05.556Z,99114.44
2022-10-29T02:00:58.895Z,99109.63
2022-10-29T02:03:39.799Z,99112.00
2022-10-29T02:06:25.570Z,99103.41
2022-10-29T02:09:04.607Z,99108.91
2022-10-29T02:11:38.954Z,99098.91
2022-10-29T02:14:15.910Z,99099.38
2022-10-29T02:16:42.908Z,99102.00
2022-10-29T02:19:09.772Z,99101.41
2022-10-29T02:21:36.595Z,99094.69
2022-10-29T02:24:03.483Z,99099.81
2022-10-29T02:26:30.306Z,99097.97
2022-10-29T02:28:57.197Z,99097.22
2022-10-29T02:31:24.042Z,99097.84
2022-10-29T02:33:50.943Z,99096.06
2022-10-29T02:36:17.807Z,99095.53
2022-10-29T02:38:44.638Z,99088.06
2022-10-29T02:41:11.470Z,99088.03
2022-10-29T02:43:38.317Z,99088.44
2022-10-29T02:46:16.391Z,99089.34
2022-10-29T02:48:43.286Z,99084.91
2022-10-29T02:51:10.590Z,99082.50
2022-10-29T02:53:37.461Z,99073.44
2022-10-29T02:56:05.441Z,99077.97
2022-10-29T02:58:32.279Z,99083.69
2022-10-29T03:00:59.157Z,99073.41
2022-10-29T03:03:26.144Z,99083.41
2022-10-29T03:05:53.443Z,99085.47
2022-10-29T03:08:20.375Z,99073.41
2022-10-29T03:10:47.283Z,99071.06
2022-10-29T03:13:14.972Z,99064.81
2022-10-29T03:15:45.049Z,99060.44
2022-10-29T03:18:12.239Z,99060.94
2022-10-29T03:20:39.328Z,99066.31
2022-10-29T03:23:06.229Z,99068.94
2022-10-29T03:25:33.114Z,99067.81
2022-10-29T03:28:00.075Z,99061.28
2022-10-29T03:30:26.961Z,99071.87
2022-10-29T03:32:54.147Z,99074.41
2022-10-29T03:35:21.552Z,99072.81
2022-10-29T03:37:52.474Z,99078.37
2022-10-29T03:40:19.941Z,99074.53
2022-10-29T03:42:46.921Z,99080.78
2022-10-29T03:45:14.558Z,99082.72
2022-10-29T03:47:41.454Z,99082.66
2022-10-29T03:50:09.052Z,99080.81
2022-10-29T03:52:35.972Z,99089.53
2022-10-29T03:55:02.862Z,99081.94
2022-10-29T03:57:29.795Z,99083.88
2022-10-29T03:59:56.648Z,99083.06
2022-10-29T04:02:24.550Z,99079.25
2022-10-29T04:04:51.546Z,99079.44
2022-10-29T04:07:18.713Z,99076.66
2022-10-29T04:09:45.519Z,99066.81
2022-10-29T04:12:12.358Z,99060.78
2022-10-29T04:14:44.475Z,99069.16
2022-10-29T04:17:12.938Z,99071.50
2022-10-29T04:19:39.819Z,99077.91
2022-10-29T04:30:27.573Z,99090.75
2022-10-29T04:32:58.897Z,99085.78
2022-10-29T04:35:27.543Z,99083.47
2022-10-29T04:37:57.992Z,99085.87
2022-10-29T04:40:25.217Z,99080.25
2022-10-29T04:42:52.169Z,99078.84
2022-10-29T04:45:19.167Z,99082.50
2022-10-29T04:47:46.324Z,99089.31
2022-10-29T04:50:13.653Z,99085.31
2022-10-29T04:52:41.166Z,99087.56
2022-10-29T04:55:08.517Z,99089.88
2022-10-29T04:57:35.367Z,99092.25
2022-10-29T05:00:02.335Z,99080.78
2022-10-29T05:02:29.199Z,99084.03
2022-10-29T05:04:56.191Z,99080.03
2022-10-29T05:07:23.042Z,99085.78
2022-10-29T05:09:49.899Z,99086.06
2022-10-29T05:12:16.740Z,99082.34
2022-10-29T05:14:43.594Z,99080.47
2022-10-29T05:17:10.428Z,99086.53
2022-10-29T05:19:37.300Z,99095.94
2022-10-29T05:22:04.335Z,99087.69
2022-10-29T05:24:31.167Z,99082.84
2022-10-29T05:26:57.997Z,99087.06
2022-10-29T05:29:24.840Z,99083.97
2022-10-29T05:31:54.015Z,99078.69
2022-10-29T05:34:21.708Z,99085.75
2022-10-29T05:36:48.889Z,99100.78
2022-10-29T05:39:15.983Z,99095.72
2022-10-29T05:41:42.969Z,99095.03
2022-10-29T05:44:09.835Z,99097.12
2022-10-29T05:46:36.722Z,99097.81
2022-10-29T05:49:04.096Z,99107.94
2022-10-29T05:51:30.970Z,99106.75
2022-10-29T05:53:57.819Z,99094.84
2022-10-29T05:56:24.669Z,99095.53
2022-10-29T05:58:51.719Z,99091.72
2022-10-29T06:01:19.970Z,99093.25
2022-10-29T06:03:47.521Z,99095.38
2022-10-29T06:06:14.608Z,99091.56
2022-10-29T06:08:41.654Z,99087.97
2022-10-29T06:11:08.597Z,99080.78
2022-10-29T06:13:35.549Z,99073.03
2022-10-29T06:16:02.570Z,99071.34
2022-10-29T06:18:29.775Z,99076.66
2022-10-29T06:21:00.705Z,99093.53
2022-10-29T06:23:28.512Z,99088.09
2022-10-29T06:25:55.424Z,99094.56
2022-10-29T06:28:22.276Z,99087.66
2022-10-29T06:30:50.475Z,99083.47
2022-10-29T06:33:18.808Z,99082.25
2022-10-29T06:35:45.737Z,99082.59
2022-10-29T06:38:12.848Z,99078.94
2022-10-29T06:40:40.675Z,99086.59
2022-10-29T06:43:10.090Z,99080.09
2022-10-29T06:45:37.130Z,99082.97
2022-10-29T06:48:05.644Z,99098.78
2022-10-29T06:50:32.525Z,99104.00
2022-10-29T06:53:06.818Z,99115.19
2022-10-29T06:55:34.471Z,99133.63
2022-10-29T06:58:09.484Z,99126.28
2022-10-29T07:00:36.475Z,99106.84
2022-10-29T07:03:06.400Z,99109.03
2022-10-29T07:05:33.607Z,99101.59
2022-10-29T07:08:01.336Z,99104.25
2022-10-29T07:10:30.284Z,99099.59
2022-10-29T07:12:57.165Z,99103.13
2022-10-29T07:15:27.497Z,99100.03
2022-10-29T07:18:02.994Z,99098.78
2022-10-29T07:20:33.404Z,99112.06
2022-10-29T07:23:03.143Z,99106.38
2022-10-29T07:25:31.063Z,99096.38
2022-10-29T07:28:20.919Z,99088.13
2022-10-29T07:30:48.693Z,99097.75
2022-10-29T07:33:16.589Z,99096.56
2022-10-29T07:35:44.842Z,99097.28
2022-10-29T07:38:12.837Z,99105.44
2022-10-29T07:40:40.704Z,99114.72
2022-10-29T07:43:08.785Z,99126.09
2022-10-29T07:45:35.634Z,99132.53
2022-10-29T07:48:04.892Z,99133.16
2022-10-29T07:50:32.331Z,99141.13
2022-10-29T07:53:03.018Z,99139.22
2022-10-29T07:58:04.125Z,99134.78
2022-10-29T08:00:32.779Z,99139.34
2022-10-29T08:02:59.675Z,99136.84
2022-10-29T08:05:27.709Z,99134.88
2022-10-29T08:07:55.712Z,99139.84
2022-10-29T08:10:24.245Z,99143.44
2022-10-29T08:12:56.638Z,99134.75
2022-10-29T08:15:24.121Z,99132.13
2022-10-29T08:17:51.225Z,99137.72
2022-10-29T08:20:18.499Z,99141.78
2022-10-29T08:22:45.391Z,99138.88
2022-10-29T08:25:12.758Z,99140.81
2022-10-29T08:27:39.694Z,99137.28
2022-10-29T08:30:07.643Z,99134.78
2022-10-29T08:32:34.935Z,99116.97
2022-10-29T08:35:02.365Z,99115.31
2022-10-29T08:37:30.117Z,99120.94
2022-10-29T08:39:56.987Z,99119.72
2022-10-29T08:42:36.670Z,99119.56
2022-10-29T08:45:12.779Z,99113.72
2022-10-29T08:47:55.321Z,99115.31
2022-10-29T08:50:24.679Z,99113.06
2022-10-29T08:52:58.752Z,99123.97
2022-10-29T08:55:38.749Z,99121.22
2022-10-29T08:58:31.256Z,99122.31
2022-10-29T09:00:58.623Z,99130.66
2022-10-29T09:03:29.749Z,99131.78
2022-10-29T09:06:10.622Z,99125.53
2022-10-29T09:09:05.222Z,99129.22
2022-10-29T09:11:59.767Z,99125.97
2022-10-29T09:14:33.441Z,99118.88
2022-10-29T09:17:21.388Z,99120.94
2022-10-29T09:19:48.145Z,99114.72
2022-10-29T09:22:24.201Z,99108.81
2022-10-29T09:24:54.084Z,99106.97
2022-10-29T09:27:25.149Z,99098.31
2022-10-29T09:30:08.293Z,99101.94
2022-10-29T09:32:53.308Z,99102.25
2022-10-29T09:35:20.497Z,99100.88
2022-10-29T09:37:55.239Z,99095.25
2022-10-29T09:40:31.001Z,99096.84
2022-10-29T09:42:59.867Z,99098.19
2022-10-29T09:45:41.185Z,99097.78
2022-10-29T09:48:35.428Z,99088.88
2022-10-29T09:51:37.803Z,99081.50
2022-10-29T09:54:04.940Z,99086.28
2022-10-29T09:56:31.925Z,99083.88
2022-10-29T09:59:22.869Z,99078.53
2022-10-29T10:01:49.908Z,99079.19
2022-10-29T10:04:41.381Z,99081.88
2022-10-29T10:07:12.880Z,99087.69
2022-10-29T10:09:59.442Z,99086.56
2022-10-29T10:12:27.334Z,99092.38
2022-10-29T10:15:05.207Z,99099.63
2022-10-29T10:17:55.725Z,99100.88
2022-10-29T10:20:44.387Z,99097.59
2022-10-29T10:23:29.218Z,99099.25
2022-10-29T10:26:03.723Z,99086.50
2022-10-29T10:28:35.580Z,99086.84
2022-10-29T10:31:11.119Z,99078.47
2022-10-29T10:33:49.639Z,99076.53
2022-10-29T10:36:16.966Z,99075.69
2022-10-29T10:38:48.062Z,99061.72
2022-10-29T10:41:16.815Z,99049.59
2022-10-29T10:43:45.227Z,99067.91
2022-10-29T10:46:22.725Z,99060.91
2022-10-29T10:49:06.635Z,99070.69
2022-10-29T10:51:34.810Z,99065.22
2022-10-29T10:54:05.526Z,99061.63
2022-10-29T10:56:32.905Z,99060.09
2022-10-29T10:59:03.385Z,99054.63
2022-10-29T11:01:33.040Z,99060.31
2022-10-29T11:04:09.995Z,99062.31
2022-10-29T11:06:40.414Z,99049.91
2022-10-29T11:09:35.859Z,99045.31
2022-10-29T11:12:09.944Z,99049.25
2022-10-29T11:14:46.664Z,99049.16
2022-10-29T11:17:40.117Z,99052.09
2022-10-29T11:20:32.457Z,99052.00
2022-10-29T11:23:29.184Z,99036.88
2022-10-29T11:26:37.920Z,99037.69
2022-10-29T11:29:25.996Z,99037.53
2022-10-29T11:32:00.894Z,99044.72
2022-10-29T11:34:42.836Z,99047.63
2022-10-29T11:37:26.321Z,99031.03
2022-10-29T11:40:02.111Z,99031.88
2022-10-29T11:42:29.030Z,99027.03
2022-10-29T11:44:58.628Z,99023.97
2022-10-29T11:47:29.940Z,99022.12
2022-10-29T11:50:06.682Z,99017.78
2022-10-29T11:52:39.692Z,99017.91
2022-10-29T11:55:31.158Z,99006.00
2022-10-29T11:58:10.278Z,99002.25
2022-10-29T12:01:25.160Z,99005.22
2022-10-29T12:04:04.094Z,99005.66
2022-10-29T12:07:11.231Z,98989.19
2022-10-29T12:10:08.926Z,98992.31
2022-10-29T12:12:53.116Z,98991.25
2022-10-29T12:15:26.955Z,98982.34
2022-10-29T12:18:08.929Z,98977.47
2022-10-29T12:20:55.302Z,98980.72
2022-10-29T12:23:28.826Z,98977.81
2022-10-29T12:26:00.255Z,98979.59
2022-10-29T12:28:45.932Z,98984.97
2022-10-29T12:31:21.200Z,98986.63
2022-10-29T12:34:26.239Z,98987.06
2022-10-29T12:37:12.150Z,98990.34
2022-10-29T12:39:49.605Z,98986.00
2022-10-29T12:42:17.906Z,98981.47
2022-10-29T12:45:03.538Z,98978.78
2022-10-29T12:47:40.786Z,98976.88
2022-10-29T12:50:19.693Z,98972.50
2022-10-29T12:52:53.881Z,98974.50
2022-10-29T12:55:21.376Z,98971.28
2022-10-29T12:57:48.247Z,98973.38
2022-10-29T13:00:23.996Z,98970.91
2022-10-29T13:02:55.483Z,98967.66
2022-10-29T13:05:36.405Z,98957.37
2022-10-29T13:08:03.191Z,98949.91
2022-10-29T13:10:33.098Z,98946.88
2022-10-29T13:12:59.953Z,98946.03
2022-10-29T13:15:32.147Z,98950.00
2022-10-29T13:18:05.242Z,98954.34
2022-10-29T13:20:37.969Z,98943.03
2022-10-29T13:23:24.765Z,98936.03
2022-10-29T13:25:52.975Z,98930.88
2022-10-29T13:28:19.730Z,98927.78
2022-10-29T13:30:54.411Z,98929.31
2022-10-29T13:33:24.291Z,98929.69
2022-10-29T13:36:01.783Z,98932.66
2022-10-29T13:39:04.603Z,98937.62
2022-10-29T13:41:43.195Z,98937.59
2022-10-29T13:44:26.547Z,98935.19
2022-10-29T13:47:01.225Z,98939.53
2022-10-29T13:49:32.945Z,98938.78
2022-10-29T13:52:13.247Z,98934.19
2022-10-29T13:54:59.062Z,98936.34
2022-10-29T13:57:32.902Z,98923.91
2022-10-29T14:00:18.510Z,98925.87
2022-10-29T14:02:54.326Z,98923.75
2022-10-29T14:05:23.501Z,98923.19
2022-10-29T14:07:59.118Z,98917.13
2022-10-29T14:10:35.844Z,98909.59
2022-10-29T14:13:30.640Z,98925.91
2022-10-29T14:16:06.691Z,98924.16
2022-10-29T14:18:36.698Z,98924.72
2022-10-29T14:21:05.862Z,98920.34
2022-10-29T14:23:33.406Z,98918.87
2022-10-29T14:26:04.067Z,98925.03
2022-10-29T14:28:32.813Z,98920.75
2022-10-29T14:30:59.598Z,98915.56
2022-10-29T14:33:31.904Z,98922.81
2022-10-29T14:36:23.313Z,98922.69
2022-10-29T14:38:53.527Z,98933.09
2022-10-29T14:41:20.782Z,98923.88
2022-10-29T14:44:02.152Z,98921.22
2022-10-29T14:46:30.826Z,98917.25
2022-10-29T14:49:12.838Z,98915.62
2022-10-29T14:51:50.945Z,98909.53
2022-10-29T14:54:22.435Z,98908.03
2022-10-29T14:56:53.303Z,98897.75
2022-10-29T14:59:25.015Z,98900.94
2022-10-29T15:02:05.773Z,98898.72
2022-10-29T15:04:49.934Z,98901.50
2022-10-29T15:07:35.472Z,98897.38
2022-10-29T15:10:09.422Z,98907.66
2022-10-29T15:12:38.488Z,98916.34
2022-10-29T15:15:22.858Z,98924.31
2022-10-29T15:18:07.843Z,98916.06
2022-10-29T15:20:45.713Z,98907.38
2022-10-29T15:23:24.698Z,98910.31
2022-10-29T15:25:54.501Z,98911.28
2022-10-29T15:28:26.843Z,98915.78
2022-10-29T15:30:54.432Z,98903.31
2022-10-29T15:33:22.941Z,98897.47
2022-10-29T15:35:53.790Z,98892.97
2022-10-29T15:38:35.615Z,98890.31
2022-10-29T15:41:08.414Z,98893.09
2022-10-29T15:43:49.948Z,98884.97
2022-10-29T15:46:24.254Z,98893.00
2022-10-29T15:48:51.250Z,98889.81
2022-10-29T15:51:19.209Z,98898.69
2022-10-29T15:53:46.060Z,98902.47
2022-10-29T15:56:13.757Z,98902.75
2022-10-29T15:58:40.861Z,98912.22
2022-10-29T16:01:08.366Z,98915.97
2022-10-29T16:03:39.349Z,98907.53
2022-10-29T16:06:07.944Z,98912.59
2022-10-29T16:08:38.461Z,98903.03
2022-10-29T16:11:10.950Z,98900.50
2022-10-29T16:13:37.999Z,98899.03
2022-10-29T16:16:05.354Z,98896.22
2022-10-29T16:18:32.206Z,98906.03
2022-10-29T16:21:01.442Z,98905.41
2022-10-29T16:23:28.326Z,98909.22
2022-10-29T16:25:55.176Z,98912.38
2022-10-29T16:28:22.050Z,98908.03
2022-10-29T16:30:53.343Z,98910.56
2022-10-29T16:33:20.365Z,98902.78
2022-10-29T16:35:47.284Z,98902.69
2022-10-29T16:38:14.234Z,98905.72
2022-10-29T16:40:42.837Z,98901.03
2022-10-29T16:43:09.956Z,98899.25
2022-10-29T16:45:37.157Z,98891.97
2022-10-29T16:48:04.118Z,98895.22
2022-10-29T16:50:33.070Z,98894.81
2022-10-29T16:53:01.906Z,98906.91
2022-10-29T16:55:29.601Z,98898.50
2022-10-29T16:57:57.120Z,98911.28
2022-10-29T17:00:26.136Z,98913.22
2022-10-29T17:02:53.250Z,98907.25
2022-10-29T17:05:20.105Z,98899.72
2022-10-29T17:07:47.018Z,98900.72
2022-10-29T17:10:13.868Z,98909.50
2022-10-29T17:12:40.733Z,98902.59
2022-10-29T17:15:07.965Z,98913.81
2022-10-29T17:17:34.826Z,98909.03
2022-10-29T17:20:01.688Z,98910.75
2022-10-29T17:22:28.543Z,98916.28
2022-10-29T17:24:55.448Z,98925.22
2022-10-29T17:27:22.369Z,98914.53
2022-10-29T17:29:49.319Z,98901.41
2022-10-29T17:32:16.720Z,98916.53
2022-10-29T17:34:43.558Z,98912.19
2022-10-29T17:37:11.485Z,98912.13
2022-10-29T17:39:38.931Z,98921.03
2022-10-29T17:42:05.964Z,98913.06
2022-10-29T17:44:34.080Z,98917.63
2022-10-29T17:47:00.991Z,98912.28
2022-10-29T17:49:28.291Z,98914.53
2022-10-29T17:51:55.138Z,98907.09
2022-10-29T17:54:22.255Z,98894.25
2022-10-29T17:56:49.295Z,98896.44
2022-10-29T17:59:16.106Z,98899.53
2022-10-29T18:01:44.316Z,98909.22
2022-10-29T18:04:11.399Z,98914.00
2022-10-29T18:06:38.234Z,98914.69
2022-10-29T18:09:05.200Z,98917.53
2022-10-29T18:11:32.071Z,98915.75
2022-10-29T18:13:58.888Z,98915.06
2022-10-29T18:16:27.751Z,98913.13
2022-10-29T18:19:02.136Z,98898.41
2022-10-29T18:21:29.902Z,98908.41
2022-10-29T18:23:56.880Z,98907.47
2022-10-29T18:26:31.975Z,98895.63
2022-10-29T18:29:00.600Z,98904.75
2022-10-29T18:31:30.666Z,98903.59
2022-10-29T18:33:58.890Z,98905.38
2022-10-29T18:36:25.852Z,98910.16
2022-10-29T18:38:54.407Z,98893.25
2022-10-29T18:41:21.943Z,98900.97
2022-10-29T18:43:48.861Z,98908.56
2022-10-29T18:46:16.106Z,98902.28
2022-10-29T18:48:46.426Z,98895.87
2022-10-29T18:51:21.806Z,98905.75
2022-10-29T18:53:48.662Z,98890.97
2022-10-29T18:56:17.874Z,98903.19
2022-10-29T18:58:45.196Z,98899.34
2022-10-29T19:01:14.716Z,98898.72
2022-10-29T19:03:41.944Z,98892.91
2022-10-29T19:06:12.630Z,98897.94
2022-10-29T19:08:41.679Z,98896.22
2022-10-29T19:11:10.803Z,98890.13
2022-10-29T19:13:37.733Z,98882.72
2022-10-29T19:16:09.621Z,98880.50
2022-10-29T19:18:37.118Z,98875.84
2022-10-29T19:21:09.206Z,98866.06
2022-10-29T19:23:36.086Z,98873.47
2022-10-29T19:26:07.548Z,98874.84
2022-10-29T19:28:35.138Z,98883.84
2022-10-29T19:31:06.103Z,98872.37
2022-10-29T19:33:33.335Z,98875.38
2022-10-29T19:36:00.899Z,98861.78
2022-10-29T19:38:28.330Z,98863.53
2022-10-29T19:40:58.497Z,98866.13
2022-10-29T19:43:26.211Z,98858.09
2022-10-29T19:45:53.534Z,98856.75
2022-10-29T19:48:20.499Z,98858.78
2022-10-29T19:50:53.969Z,98868.66
2022-10-29T19:53:21.249Z,98862.47
2022-10-29T19:55:50.633Z,98869.94
2022-10-29T19:58:18.224Z,98861.53
2022-10-29T20:00:45.521Z,98870.31
2022-10-29T20:03:13.395Z,98870.09
2022-10-29T20:05:41.139Z,98869.00
2022-10-29T20:08:11.435Z,98858.37
2022-10-29T20:10:41.734Z,98872.22
2022-10-29T20:13:08.646Z,98860.34
2022-10-29T20:15:35.520Z,98860.38
2022-10-29T20:18:02.374Z,98863.84
2022-10-29T20:20:29.245Z,98861.19
2022-10-29T20:22:57.078Z,98847.34
2022-10-29T20:25:24.374Z,98853.72
2022-10-29T20:27:51.328Z,98843.37
2022-10-29T20:30:18.311Z,98852.03
2022-10-29T20:32:45.168Z,98839.94
2022-10-29T20:35:12.019Z,98842.16
2022-10-29T20:37:38.816Z,98840.00
2022-10-29T20:40:06.075Z,98840.31
2022-10-29T20:42:32.954Z,98848.59
2022-10-29T20:44:59.814Z,98842.63
2022-10-29T20:47:26.729Z,98844.31
2022-10-29T20:49:53.543Z,98855.47
2022-10-29T20:52:20.365Z,98858.69
2022-10-29T20:54:47.248Z,98852.16
2022-10-29T20:57:14.126Z,98850.19
2022-10-29T20:59:42.106Z,98858.03
2022-10-29T21:02:11.974Z,98851.09
2022-10-29T21:04:39.292Z,98858.16
2022-10-29T21:07:07.866Z,98860.53
2022-10-29T21:09:34.891Z,98856.56
2022-10-29T21:12:01.733Z,98861.75
2022-10-29T21:14:29.768Z,98855.94
2022-10-29T21:16:56.734Z,98856.25
2022-10-29T21:19:24.239Z,98856.38
2022-10-29T21:21:51.076Z,98853.62
2022-10-29T21:24:18.313Z,98844.03
2022-10-29T21:26:45.163Z,98838.34
2022-10-29T21:29:11.992Z,98842.72
2022-10-29T21:31:38.866Z,98836.47
2022-10-29T21:34:05.738Z,98836.59
2022-10-29T21:36:32.547Z,98832.41
2022-10-29T21:38:59.403Z,98842.75
2022-10-29T21:41:26.267Z,98834.59
2022-10-29T21:43:53.282Z,98840.00
2022-10-29T21:46:20.149Z,98834.72
2022-10-29T21:48:47.011Z,98830.78
2022-10-29T21:51:15.207Z,98836.19
2022-10-29T21:53:42.026Z,98843.75
2022-10-29T21:56:10.889Z,98839.81
2022-10-29T21:58:37.822Z,98826.97
2022-10-29T22:01:10.443Z,98841.03
2022-10-29T22:03:38.935Z,98844.47
2022-10-29T22:06:08.211Z,98840.75
2022-10-29T22:08:35.316Z,98836.22
2022-10-29T22:11:02.439Z,98836.84
2022-10-29T22:13:30.225Z,98835.72
2022-10-29T22:15:57.075Z,98828.06
2022-10-29T22:18:24.722Z,98826.13
2022-10-29T22:21:09.122Z,98819.37
2022-10-29T22:23:36.217Z,98818.50
2022-10-29T22:26:03.057Z,98813.81
2022-10-29T22:28:29.946Z,98813.41
2022-10-29T22:31:01.264Z,98822.03
2022-10-29T22:33:28.854Z,98818.75
2022-10-29T22:35:55.929Z,98815.41
2022-10-29T22:38:22.826Z,98820.78
2022-10-29T22:40:49.698Z,98819.37
2022-10-29T22:43:16.566Z,98823.00
2022-10-29T22:45:45.638Z,98818.75
2022-10-29T22:48:12.625Z,98822.03
2022-10-29T22:50:39.469Z,98819.97
2022-10-29T22:53:06.365Z,98820.44
2022-10-29T22:55:33.240Z,98819.03
2022-10-29T22:58:00.124Z,98826.28
2022-10-29T23:00:26.945Z,98817.09
2022-10-29T23:02:53.796Z,98820.47
2022-10-29T23:05:20.679Z,98810.72
2022-10-29T23:07:47.758Z,98811.97
2022-10-29T23:10:14.705Z,98813.81
2022-10-29T23:12:41.569Z,98820.81
2022-10-29T23:15:08.851Z,98814.38
2022-10-29T23:17:35.735Z,98819.69
2022-10-29T23:20:02.686Z,98828.41
2022-10-29T23:22:29.545Z,98823.88
2022-10-29T23:24:56.384Z,98825.06
2022-10-29T23:27:23.257Z,98810.56
2022-10-29T23:29:50.096Z,98819.50
2022-10-29T23:32:16.950Z,98810.94
2022-10-29T23:34:43.812Z,98807.47
2022-10-29T23:37:10.695Z,98796.19
2022-10-29T23:39:37.612Z,98792.28
2022-10-29T23:42:04.633Z,98792.94
2022-10-29T23:44:31.466Z,98797.06
2022-10-29T23:46:58.305Z,98791.34
2022-10-29T23:49:25.180Z,98787.69
2022-10-29T23:51:52.073Z,98791.94
2022-10-29T23:54:18.903Z,98804.25
2022-10-29T23:56:45.793Z,98796.56
2022-10-29T23:59:12.627Z,98789.22
